Anaheim, CA (92801)

12:39 PM PDT on October 23, 2014 (GMT -0700)
EUCLID/LAPALMA | Change Station
CLOSE
Current Station
Personal Weather Station
Location: Anaheim, CA
Elevation: 128 ft
Nearby Weather Stations

Elev 128 ft 33.85 °N, 117.95 °W | Updated 5 seconds ago

Clear
Clear
84.1 °F
Feels Like 84 °F
N
0.0
Wind Variable Wind from ENE
Gusts 3.0 mph

Today
High -- | Low -- °F
--% Chance of Precip.
Yesterday
High -- | Low -- °F
Precip. -- in
7:03 AM 6:08 PM
Waning Crescent, 0% visible
Pressure 29.97 in
Visibility 7.0 miles
Clouds Clear
Heat Index 84 °F
Dew Point 61 °F
Humidity 46%
Rainfall 0.00 in
Snow Depth Not available.
UV 6 out of 12
Pollen 3.70 out of 12
Ozone Good
PM2.5 Moderate
Flu Activity Sporadic
METAR KFUL 231853Z 22004KT 7SM CLR 27/13 A2998 RMK AO2 SLP149 T02720133

More Conditions Fewer Conditions

Pressure 29.97 in
Visibility 7.0 miles
Clouds Clear
Heat Index 84 °F
Dew Point 61 °F
Humidity 46%
Rainfall 0.00 in
Snow Depth Not available.
UV 6 out of 12
Pollen 3.70 out of 12
Ozone Good
PM2.5 Moderate
Flu Activity Sporadic
METAR KFUL 231853Z 22004KT 7SM CLR 27/13 A2998 RMK AO2 SLP149 T02720133

More Conditions Fewer Conditions

10-Day Weather Forecast

Almanac

Astronomy

Oct. 23, 2014 Rise Set
Actual Time 7:03 AM PDT 6:08 PM PDT
Civil Twilight 6:37 AM PDT 6:33 PM PDT
Nautical Twilight 6:08 AM PDT 7:02 PM PDT
Astronomical Twilight 5:39 AM PDT 7:31 PM PDT
Moon 6:48 AM PDT 6:13 PM PDT
Length of Visible Light 11h 55m
Length of Day
11h 05m
Tomorrow will be 1m 57s shorter.
Waning Crescent, 0% of the Moon is Illuminated
Today
Waning Crescent
Oct 23
New
Oct 30
First Quarter
Nov 6
Full
Nov 14
Last Quarter

Today's Extremes

State Highs State Lows

Community

WunderPhotos

Upload Photos

1,764,350 photos uploaded!

WunderBlogs® & News

By Dr. Jeff Masters
Director of Meteorology, Weather Underground
By Kari Strenfel
Meteorologist, Weather Underground
By Christopher C. Burt
Weather Historian, Weather Underground
October 23, 2014
October 23, 2014
October 23, 2014

Nearby

Air Quality

  Air Quality AQ Index Pollutant
Yesterday Good
PM10
Yesterday Moderate
OZONE
Current Moderate
PM2.5
Current Good
OZONE
Thursday Good
PM10
Thursday Good
OZONE
Thursday Good
CO
Thursday Good
NO2

Snow Depth

Station Depth Elevation
Virginia Lakes Ridge 0 in 9200 ft
Leavitt Lake 0 in 9400 ft
Leavitt Meadows 0 in 7200 ft
Summit Meadow 1 in 9122 ft
Monitor Pass 1 in 8350 ft

Earthquake Activity

City Distance Mag. Time & Date
No recent earthquake activity has been reported nearby.
Minimum magnitude displayed is 2.5.

Coastal Water Temperatures

Place Temperature
Santa Monica Pier 69.1 °F
Los Angeles, CA 69.1 °F
La Jolla, CA 71.1 °F

Nearby Weather Stations